sensor_id;sensor_type;location;lat;lon;timestamp;temperature;humidity
12254;DHT22;6189;52.526;13.390;2023-04-05T00:01:14;6.60;71.10
12254;DHT22;6189;52.526;13.390;2023-04-05T00:04:04;6.70;69.50
12254;DHT22;6189;52.526;13.390;2023-04-05T00:06:51;6.70;70.00
12254;DHT22;6189;52.526;13.390;2023-04-05T00:09:37;6.90;70.20
12254;DHT22;6189;52.526;13.390;2023-04-05T00:12:22;7.00;70.00
12254;DHT22;6189;52.526;13.390;2023-04-05T00:15:10;7.00;70.20
12254;DHT22;6189;52.526;13.390;2023-04-05T00:17:56;6.90;69.30
12254;DHT22;6189;52.526;13.390;2023-04-05T00:20:43;6.90;69.80
12254;DHT22;6189;52.526;13.390;2023-04-05T00:23:29;6.70;69.80
12254;DHT22;6189;52.526;13.390;2023-04-05T00:26:23;6.60;70.60
12254;DHT22;6189;52.526;13.390;2023-04-05T00:29:09;6.70;71.00
12254;DHT22;6189;52.526;13.390;2023-04-05T00:31:56;6.70;70.70
12254;DHT22;6189;52.526;13.390;2023-04-05T00:34:41;6.40;70.80
12254;DHT22;6189;52.526;13.390;2023-04-05T00:37:27;6.50;71.60
12254;DHT22;6189;52.526;13.390;2023-04-05T00:40:12;6.50;70.80
12254;DHT22;6189;52.526;13.390;2023-04-05T00:42:58;6.40;71.70
12254;DHT22;6189;52.526;13.390;2023-04-05T00:45:44;6.50;71.60
12254;DHT22;6189;52.526;13.390;2023-04-05T00:48:32;6.50;72.00
12254;DHT22;6189;52.526;13.390;2023-04-05T00:51:17;6.60;71.40
12254;DHT22;6189;52.526;13.390;2023-04-05T00:54:03;6.50;71.50
12254;DHT22;6189;52.526;13.390;2023-04-05T00:56:49;6.60;72.20
12254;DHT22;6189;52.526;13.390;2023-04-05T00:59:36;6.60;71.20
12254;DHT22;6189;52.526;13.390;2023-04-05T01:02:28;6.50;70.90
12254;DHT22;6189;52.526;13.390;2023-04-05T01:05:34;6.70;71.30
12254;DHT22;6189;52.526;13.390;2023-04-05T01:08:29;6.60;70.90
12254;DHT22;6189;52.526;13.390;2023-04-05T01:11:17;6.40;71.20
12254;DHT22;6189;52.526;13.390;2023-04-05T01:14:03;6.40;71.10
12254;DHT22;6189;52.526;13.390;2023-04-05T01:16:49;6.40;71.60
12254;DHT22;6189;52.526;13.390;2023-04-05T01:19:41;6.40;72.60
12254;DHT22;6189;52.526;13.390;2023-04-05T01:23:10;6.50;72.00
12254;DHT22;6189;52.526;13.390;2023-04-05T01:26:16;6.50;72.60
12254;DHT22;6189;52.526;13.390;2023-04-05T01:29:45;6.30;72.20
12254;DHT22;6189;52.526;13.390;2023-04-05T01:32:45;6.20;73.30
12254;DHT22;6189;52.526;13.390;2023-04-05T01:35:38;6.20;73.40
12254;DHT22;6189;52.526;13.390;2023-04-05T01:38:26;6.30;73.50
12254;DHT22;6189;52.526;13.390;2023-04-05T01:41:13;6.40;73.40
12254;DHT22;6189;52.526;13.390;2023-04-05T01:43:59;6.40;73.50
12254;DHT22;6189;52.526;13.390;2023-04-05T01:46:46;6.30;73.50
12254;DHT22;6189;52.526;13.390;2023-04-05T01:49:31;6.10;72.80
12254;DHT22;6189;52.526;13.390;2023-04-05T01:52:17;6.00;73.50
12254;DHT22;6189;52.526;13.390;2023-04-05T01:55:03;6.00;73.50
12254;DHT22;6189;52.526;13.390;2023-04-05T01:57:50;6.10;73.40
12254;DHT22;6189;52.526;13.390;2023-04-05T02:00:36;6.00;73.20
12254;DHT22;6189;52.526;13.390;2023-04-05T02:03:23;5.60;74.30
12254;DHT22;6189;52.526;13.390;2023-04-05T02:06:09;5.80;74.60
12254;DHT22;6189;52.526;13.390;2023-04-05T02:08:54;6.00;74.30
12254;DHT22;6189;52.526;13.390;2023-04-05T02:11:40;6.00;74.40
12254;DHT22;6189;52.526;13.390;2023-04-05T02:14:26;6.00;74.50
12254;DHT22;6189;52.526;13.390;2023-04-05T02:17:11;6.10;74.80
12254;DHT22;6189;52.526;13.390;2023-04-05T02:19:58;6.00;74.70
12254;DHT22;6189;52.526;13.390;2023-04-05T02:22:45;5.70;75.30
12254;DHT22;6189;52.526;13.390;2023-04-05T02:25:31;5.60;76.10
12254;DHT22;6189;52.526;13.390;2023-04-05T02:28:17;5.80;76.30
12254;DHT22;6189;52.526;13.390;2023-04-05T02:31:07;5.90;76.20
12254;DHT22;6189;52.526;13.390;2023-04-05T02:33:54;6.00;76.40
12254;DHT22;6189;52.526;13.390;2023-04-05T02:36:42;5.70;76.20
12254;DHT22;6189;52.526;13.390;2023-04-05T02:39:28;5.70;76.50
12254;DHT22;6189;52.526;13.390;2023-04-05T02:42:14;5.50;77.30
12254;DHT22;6189;52.526;13.390;2023-04-05T02:44:59;5.30;78.00
12254;DHT22;6189;52.526;13.390;2023-04-05T02:47:45;5.60;78.30
12254;DHT22;6189;52.526;13.390;2023-04-05T02:50:31;5.60;78.20
12254;DHT22;6189;52.526;13.390;2023-04-05T02:53:19;5.60;78.20
12254;DHT22;6189;52.526;13.390;2023-04-05T02:56:05;5.40;78.20
12254;DHT22;6189;52.526;13.390;2023-04-05T02:58:51;5.50;79.30
12254;DHT22;6189;52.526;13.390;2023-04-05T03:01:37;5.80;79.20
12254;DHT22;6189;52.526;13.390;2023-04-05T03:04:27;5.90;78.90
12254;DHT22;6189;52.526;13.390;2023-04-05T03:07:13;5.80;79.20
12254;DHT22;6189;52.526;13.390;2023-04-05T03:10:03;5.70;79.50
12254;DHT22;6189;52.526;13.390;2023-04-05T03:12:50;5.80;80.10
12254;DHT22;6189;52.526;13.390;2023-04-05T03:15:35;5.80;80.20
12254;DHT22;6189;52.526;13.390;2023-04-05T03:18:21;5.70;80.20
12254;DHT22;6189;52.526;13.390;2023-04-05T03:21:08;5.80;80.50
12254;DHT22;6189;52.526;13.390;2023-04-05T03:23:55;6.00;80.30
12254;DHT22;6189;52.526;13.390;2023-04-05T03:26:45;6.10;80.00
12254;DHT22;6189;52.526;13.390;2023-04-05T03:29:30;6.20;79.80
12254;DHT22;6189;52.526;13.390;2023-04-05T03:32:16;6.30;79.80
12254;DHT22;6189;52.526;13.390;2023-04-05T03:35:02;6.20;79.40
12254;DHT22;6189;52.526;13.390;2023-04-05T03:37:47;6.30;79.90
12254;DHT22;6189;52.526;13.390;2023-04-05T03:40:33;6.40;79.40
12254;DHT22;6189;52.526;13.390;2023-04-05T03:43:20;6.40;79.60
12254;DHT22;6189;52.526;13.390;2023-04-05T03:46:05;6.30;80.10
12254;DHT22;6189;52.526;13.390;2023-04-05T03:48:51;6.20;81.00
12254;DHT22;6189;52.526;13.390;2023-04-05T03:51:37;6.30;80.60
12254;DHT22;6189;52.526;13.390;2023-04-05T03:54:22;5.80;81.30
12254;DHT22;6189;52.526;13.390;2023-04-05T03:57:08;5.90;82.30
12254;DHT22;6189;52.526;13.390;2023-04-05T03:59:55;5.50;82.10
12254;DHT22;6189;52.526;13.390;2023-04-05T04:02:42;5.50;83.30
12254;DHT22;6189;52.526;13.390;2023-04-05T04:05:28;5.80;82.90
12254;DHT22;6189;52.526;13.390;2023-04-05T04:08:14;5.40;82.80
12254;DHT22;6189;52.526;13.390;2023-04-05T04:11:00;5.60;83.70
12254;DHT22;6189;52.526;13.390;2023-04-05T04:13:46;5.70;83.10
12254;DHT22;6189;52.526;13.390;2023-04-05T04:16:33;5.50;83.90
12254;DHT22;6189;52.526;13.390;2023-04-05T04:19:18;5.70;83.50
12254;DHT22;6189;52.526;13.390;2023-04-05T04:22:04;5.10;84.30
12254;DHT22;6189;52.526;13.390;2023-04-05T04:24:53;5.10;85.60
12254;DHT22;6189;52.526;13.390;2023-04-05T04:27:40;4.60;86.80
12254;DHT22;6189;52.526;13.390;2023-04-05T04:30:26;4.70;88.30
12254;DHT22;6189;52.526;13.390;2023-04-05T04:33:13;4.40;88.90
12254;DHT22;6189;52.526;13.390;2023-04-05T04:36:05;4.60;89.30
12254;DHT22;6189;52.526;13.390;2023-04-05T04:38:52;4.50;89.20
12254;DHT22;6189;52.526;13.390;2023-04-05T04:41:38;4.70;89.00
12254;DHT22;6189;52.526;13.390;2023-04-05T04:44:30;4.70;89.70
12254;DHT22;6189;52.526;13.390;2023-04-05T04:47:16;4.70;88.60
12254;DHT22;6189;52.526;13.390;2023-04-05T04:50:07;4.60;89.40
12254;DHT22;6189;52.526;13.390;2023-04-05T04:52:53;4.70;89.30
12254;DHT22;6189;52.526;13.390;2023-04-05T04:55:39;4.70;89.80
12254;DHT22;6189;52.526;13.390;2023-04-05T04:58:25;5.00;89.70
12254;DHT22;6189;52.526;13.390;2023-04-05T05:01:11;5.10;89.20
12254;DHT22;6189;52.526;13.390;2023-04-05T05:03:56;5.50;88.10
12254;DHT22;6189;52.526;13.390;2023-04-05T05:06:43;5.50;88.10
12254;DHT22;6189;52.526;13.390;2023-04-05T05:09:29;5.70;88.00
12254;DHT22;6189;52.526;13.390;2023-04-05T05:12:14;5.90;88.10
12254;DHT22;6189;52.526;13.390;2023-04-05T05:15:00;5.90;87.00
12254;DHT22;6189;52.526;13.390;2023-04-05T05:17:46;6.00;87.10
12254;DHT22;6189;52.526;13.390;2023-04-05T05:20:36;6.10;87.70
12254;DHT22;6189;52.526;13.390;2023-04-05T05:23:23;6.30;85.30
12254;DHT22;6189;52.526;13.390;2023-04-05T05:26:08;6.00;85.30
12254;DHT22;6189;52.526;13.390;2023-04-05T05:28:59;6.10;86.10
12254;DHT22;6189;52.526;13.390;2023-04-05T05:31:45;6.00;85.70
12254;DHT22;6189;52.526;13.390;2023-04-05T05:34:31;5.80;86.30
12254;DHT22;6189;52.526;13.390;2023-04-05T05:37:16;6.10;86.80
12254;DHT22;6189;52.526;13.390;2023-04-05T05:40:04;5.90;85.90
12254;DHT22;6189;52.526;13.390;2023-04-05T05:42:50;5.30;86.40
12254;DHT22;6189;52.526;13.390;2023-04-05T05:45:36;5.60;88.70
12254;DHT22;6189;52.526;13.390;2023-04-05T05:48:21;5.30;88.60
12254;DHT22;6189;52.526;13.390;2023-04-05T05:51:07;5.20;88.30
12254;DHT22;6189;52.526;13.390;2023-04-05T05:53:53;5.20;88.40
12254;DHT22;6189;52.526;13.390;2023-04-05T05:56:40;5.40;88.40
12254;DHT22;6189;52.526;13.390;2023-04-05T05:59:26;5.70;87.20
12254;DHT22;6189;52.526;13.390;2023-04-05T06:02:12;5.50;87.70
12254;DHT22;6189;52.526;13.390;2023-04-05T06:04:58;5.40;87.50
12254;DHT22;6189;52.526;13.390;2023-04-05T06:07:45;5.60;87.80
12254;DHT22;6189;52.526;13.390;2023-04-05T06:10:31;5.60;87.50
12254;DHT22;6189;52.526;13.390;2023-04-05T06:13:18;5.80;87.70
12254;DHT22;6189;52.526;13.390;2023-04-05T06:16:04;5.10;88.40
12254;DHT22;6189;52.526;13.390;2023-04-05T06:18:50;5.20;90.10
12254;DHT22;6189;52.526;13.390;2023-04-05T06:21:36;5.40;89.20
12254;DHT22;6189;52.526;13.390;2023-04-05T06:24:21;5.70;88.80
12254;DHT22;6189;52.526;13.390;2023-04-05T06:27:07;5.70;87.00
12254;DHT22;6189;52.526;13.390;2023-04-05T06:29:54;5.50;90.00
12254;DHT22;6189;52.526;13.390;2023-04-05T06:32:43;5.70;88.50
12254;DHT22;6189;52.526;13.390;2023-04-05T06:35:29;6.00;87.90
12254;DHT22;6189;52.526;13.390;2023-04-05T06:38:14;6.10;87.70
12254;DHT22;6189;52.526;13.390;2023-04-05T06:41:00;6.30;87.20
12254;DHT22;6189;52.526;13.390;2023-04-05T06:43:46;6.50;87.00
12254;DHT22;6189;52.526;13.390;2023-04-05T06:46:33;6.50;85.40
12254;DHT22;6189;52.526;13.390;2023-04-05T06:49:18;6.40;84.30
12254;DHT22;6189;52.526;13.390;2023-04-05T06:52:04;5.50;86.40
12254;DHT22;6189;52.526;13.390;2023-04-05T06:54:50;5.50;88.00
12254;DHT22;6189;52.526;13.390;2023-04-05T06:57:35;5.80;87.10
12254;DHT22;6189;52.526;13.390;2023-04-05T07:00:21;5.70;87.40
12254;DHT22;6189;52.526;13.390;2023-04-05T07:03:08;5.90;87.80
12254;DHT22;6189;52.526;13.390;2023-04-05T07:05:55;5.60;87.30
12254;DHT22;6189;52.526;13.390;2023-04-05T07:08:42;5.80;88.70
12254;DHT22;6189;52.526;13.390;2023-04-05T07:11:27;6.10;88.10
12254;DHT22;6189;52.526;13.390;2023-04-05T07:14:16;6.40;87.30
12254;DHT22;6189;52.526;13.390;2023-04-05T07:17:03;6.70;86.80
12254;DHT22;6189;52.526;13.390;2023-04-05T07:19:50;6.80;86.70
12254;DHT22;6189;52.526;13.390;2023-04-05T07:22:36;6.90;87.10
12254;DHT22;6189;52.526;13.390;2023-04-05T07:25:21;6.80;87.50
12254;DHT22;6189;52.526;13.390;2023-04-05T07:28:07;6.60;87.70
12254;DHT22;6189;52.526;13.390;2023-04-05T07:30:53;6.70;88.30
12254;DHT22;6189;52.526;13.390;2023-04-05T07:33:39;6.70;88.10
12254;DHT22;6189;52.526;13.390;2023-04-05T07:36:26;6.70;88.50
12254;DHT22;6189;52.526;13.390;2023-04-05T07:39:13;7.00;88.10
12254;DHT22;6189;52.526;13.390;2023-04-05T07:41:59;7.00;87.30
12254;DHT22;6189;52.526;13.390;2023-04-05T07:44:45;6.50;87.90
12254;DHT22;6189;52.526;13.390;2023-04-05T07:47:32;6.80;88.80
12254;DHT22;6189;52.526;13.390;2023-04-05T07:50:17;6.90;88.80
12254;DHT22;6189;52.526;13.390;2023-04-05T07:53:04;7.00;88.20
12254;DHT22;6189;52.526;13.390;2023-04-05T07:55:51;7.20;88.00
12254;DHT22;6189;52.526;13.390;2023-04-05T07:58:37;7.40;87.30
12254;DHT22;6189;52.526;13.390;2023-04-05T08:01:24;7.40;87.10
12254;DHT22;6189;52.526;13.390;2023-04-05T08:04:11;7.60;86.80
12254;DHT22;6189;52.526;13.390;2023-04-05T08:06:56;7.60;87.30
12254;DHT22;6189;52.526;13.390;2023-04-05T08:09:44;7.60;88.30
12254;DHT22;6189;52.526;13.390;2023-04-05T08:12:30;7.70;87.10
12254;DHT22;6189;52.526;13.390;2023-04-05T08:15:16;7.70;87.80
12254;DHT22;6189;52.526;13.390;2023-04-05T08:18:01;7.80;87.00
12254;DHT22;6189;52.526;13.390;2023-04-05T08:20:50;7.80;88.00
12254;DHT22;6189;52.526;13.390;2023-04-05T08:23:36;7.90;87.10
12254;DHT22;6189;52.526;13.390;2023-04-05T08:26:23;7.90;87.90
12254;DHT22;6189;52.526;13.390;2023-04-05T08:29:08;7.90;87.40
12254;DHT22;6189;52.526;13.390;2023-04-05T08:31:55;8.00;87.60
12254;DHT22;6189;52.526;13.390;2023-04-05T08:34:41;7.70;87.70
12254;DHT22;6189;52.526;13.390;2023-04-05T08:37:27;7.90;87.70
12254;DHT22;6189;52.526;13.390;2023-04-05T08:40:13;8.10;87.60
12254;DHT22;6189;52.526;13.390;2023-04-05T08:43:05;8.20;88.10
12254;DHT22;6189;52.526;13.390;2023-04-05T08:45:52;8.30;88.70
12254;DHT22;6189;52.526;13.390;2023-04-05T08:48:39;8.50;88.70
12254;DHT22;6189;52.526;13.390;2023-04-05T08:51:25;8.70;88.00
12254;DHT22;6189;52.526;13.390;2023-04-05T08:54:11;8.80;86.70
12254;DHT22;6189;52.526;13.390;2023-04-05T08:56:57;8.60;86.70
12254;DHT22;6189;52.526;13.390;2023-04-05T08:59:46;8.70;88.80
12254;DHT22;6189;52.526;13.390;2023-04-05T09:02:33;9.00;86.00
12254;DHT22;6189;52.526;13.390;2023-04-05T09:05:19;9.10;83.10
12254;DHT22;6189;52.526;13.390;2023-04-05T09:08:06;8.80;84.10
12254;DHT22;6189;52.526;13.390;2023-04-05T09:10:52;8.70;86.60
12254;DHT22;6189;52.526;13.390;2023-04-05T09:13:37;9.00;86.60
12254;DHT22;6189;52.526;13.390;2023-04-05T09:16:24;9.20;85.30
12254;DHT22;6189;52.526;13.390;2023-04-05T09:19:11;9.30;85.60
12254;DHT22;6189;52.526;13.390;2023-04-05T09:21:58;9.20;83.80
12254;DHT22;6189;52.526;13.390;2023-04-05T09:24:45;9.40;85.00
12254;DHT22;6189;52.526;13.390;2023-04-05T09:27:31;9.70;84.50
12254;DHT22;6189;52.526;13.390;2023-04-05T09:30:20;9.90;84.90
12254;DHT22;6189;52.526;13.390;2023-04-05T09:33:08;10.60;82.90
12254;DHT22;6189;52.526;13.390;2023-04-05T09:35:54;11.50;78.50
12254;DHT22;6189;52.526;13.390;2023-04-05T09:38:44;12.30;75.70
12254;DHT22;6189;52.526;13.390;2023-04-05T09:41:30;12.60;72.40
12254;DHT22;6189;52.526;13.390;2023-04-05T09:44:16;12.70;73.20
12254;DHT22;6189;52.526;13.390;2023-04-05T09:47:14;12.50;74.30
12254;DHT22;6189;52.526;13.390;2023-04-05T09:50:03;12.60;73.90
12254;DHT22;6189;52.526;13.390;2023-04-05T09:53:08;12.50;72.00
12254;DHT22;6189;52.526;13.390;2023-04-05T09:56:08;13.00;70.40
12254;DHT22;6189;52.526;13.390;2023-04-05T09:58:58;13.00;73.30
12254;DHT22;6189;52.526;13.390;2023-04-05T10:01:49;13.10;71.60
12254;DHT22;6189;52.526;13.390;2023-04-05T10:04:39;13.30;71.10
12254;DHT22;6189;52.526;13.390;2023-04-05T10:07:26;13.30;69.90
12254;DHT22;6189;52.526;13.390;2023-04-05T10:10:12;13.50;69.10
12254;DHT22;6189;52.526;13.390;2023-04-05T10:12:59;13.50;67.40
12254;DHT22;6189;52.526;13.390;2023-04-05T10:15:47;13.40;67.50
12254;DHT22;6189;52.526;13.390;2023-04-05T10:18:40;13.40;68.00
12254;DHT22;6189;52.526;13.390;2023-04-05T10:21:29;13.40;67.90
12254;DHT22;6189;52.526;13.390;2023-04-05T10:24:31;13.20;67.20
12254;DHT22;6189;52.526;13.390;2023-04-05T10:27:22;12.90;68.50
12254;DHT22;6189;52.526;13.390;2023-04-05T10:30:12;12.80;69.30
12254;DHT22;6189;52.526;13.390;2023-04-05T10:33:12;12.60;68.80
12254;DHT22;6189;52.526;13.390;2023-04-05T10:36:06;12.40;67.90
12254;DHT22;6189;52.526;13.390;2023-04-05T10:38:59;12.10;70.00
12254;DHT22;6189;52.526;13.390;2023-04-05T10:41:54;12.10;69.60
12254;DHT22;6189;52.526;13.390;2023-04-05T10:44:45;11.90;70.10
12254;DHT22;6189;52.526;13.390;2023-04-05T10:47:37;11.80;71.30
12254;DHT22;6189;52.526;13.390;2023-04-05T10:50:24;10.80;68.60
12254;DHT22;6189;52.526;13.390;2023-04-05T10:53:11;10.50;70.50
12254;DHT22;6189;52.526;13.390;2023-04-05T10:55:57;10.10;71.80
12254;DHT22;6189;52.526;13.390;2023-04-05T10:58:45;10.40;73.50
12254;DHT22;6189;52.526;13.390;2023-04-05T11:01:32;10.60;72.40
12254;DHT22;6189;52.526;13.390;2023-04-05T11:04:18;10.60;72.70
12254;DHT22;6189;52.526;13.390;2023-04-05T11:07:11;10.70;72.90
12254;DHT22;6189;52.526;13.390;2023-04-05T11:10:00;10.80;73.60
12254;DHT22;6189;52.526;13.390;2023-04-05T11:13:08;10.60;73.20
12254;DHT22;6189;52.526;13.390;2023-04-05T11:16:08;10.70;72.70
12254;DHT22;6189;52.526;13.390;2023-04-05T11:18:54;10.70;71.80
12254;DHT22;6189;52.526;13.390;2023-04-05T11:21:39;10.70;71.70
12254;DHT22;6189;52.526;13.390;2023-04-05T11:24:51;10.80;72.70
12254;DHT22;6189;52.526;13.390;2023-04-05T11:27:37;10.80;73.00
12254;DHT22;6189;52.526;13.390;2023-04-05T11:30:45;10.90;72.20
12254;DHT22;6189;52.526;13.390;2023-04-05T11:33:53;11.10;71.70
12254;DHT22;6189;52.526;13.390;2023-04-05T11:36:43;11.00;72.50
12254;DHT22;6189;52.526;13.390;2023-04-05T11:39:29;10.70;72.90
12254;DHT22;6189;52.526;13.390;2023-04-05T11:42:15;10.80;73.80
12254;DHT22;6189;52.526;13.390;2023-04-05T11:45:01;10.90;73.80
12254;DHT22;6189;52.526;13.390;2023-04-05T11:47:47;11.00;72.60
12254;DHT22;6189;52.526;13.390;2023-04-05T11:50:37;10.70;72.90
12254;DHT22;6189;52.526;13.390;2023-04-05T11:53:23;10.60;74.60
12254;DHT22;6189;52.526;13.390;2023-04-05T11:56:09;10.40;73.10
12254;DHT22;6189;52.526;13.390;2023-04-05T11:58:57;10.60;75.00
12254;DHT22;6189;52.526;13.390;2023-04-05T12:01:43;10.80;74.50
12254;DHT22;6189;52.526;13.390;2023-04-05T12:04:29;10.80;74.30
12254;DHT22;6189;52.526;13.390;2023-04-05T12:07:18;10.80;74.60
12254;DHT22;6189;52.526;13.390;2023-04-05T12:10:07;10.90;73.80
12254;DHT22;6189;52.526;13.390;2023-04-05T12:12:54;10.80;73.80
12254;DHT22;6189;52.526;13.390;2023-04-05T12:15:40;10.80;74.60
12254;DHT22;6189;52.526;13.390;2023-04-05T12:18:26;10.90;74.10
12254;DHT22;6189;52.526;13.390;2023-04-05T12:21:12;10.40;74.70
12254;DHT22;6189;52.526;13.390;2023-04-05T12:23:59;10.30;76.60
12254;DHT22;6189;52.526;13.390;2023-04-05T12:26:44;10.40;75.70
12254;DHT22;6189;52.526;13.390;2023-04-05T12:29:30;10.40;77.10
12254;DHT22;6189;52.526;13.390;2023-04-05T12:32:16;10.60;76.70
12254;DHT22;6189;52.526;13.390;2023-04-05T12:35:05;10.60;77.20
12254;DHT22;6189;52.526;13.390;2023-04-05T12:37:51;10.50;77.40
12254;DHT22;6189;52.526;13.390;2023-04-05T12:40:39;10.50;76.80
12254;DHT22;6189;52.526;13.390;2023-04-05T12:43:25;10.70;77.10
12254;DHT22;6189;52.526;13.390;2023-04-05T12:46:15;10.50;77.50
12254;DHT22;6189;52.526;13.390;2023-04-05T12:49:01;10.70;76.90
12254;DHT22;6189;52.526;13.390;2023-04-05T12:51:48;10.50;78.00
12254;DHT22;6189;52.526;13.390;2023-04-05T12:54:34;10.80;78.70
12254;DHT22;6189;52.526;13.390;2023-04-05T12:57:29;10.90;78.60
12254;DHT22;6189;52.526;13.390;2023-04-05T13:00:16;11.00;76.80
12254;DHT22;6189;52.526;13.390;2023-04-05T13:03:02;10.90;74.80
12254;DHT22;6189;52.526;13.390;2023-04-05T13:05:47;11.10;75.40
12254;DHT22;6189;52.526;13.390;2023-04-05T13:08:33;11.20;74.30
12254;DHT22;6189;52.526;13.390;2023-04-05T13:11:19;11.30;74.50
12254;DHT22;6189;52.526;13.390;2023-04-05T13:14:06;11.60;73.70
12254;DHT22;6189;52.526;13.390;2023-04-05T13:16:52;11.50;73.60
12254;DHT22;6189;52.526;13.390;2023-04-05T13:19:38;11.60;72.90
12254;DHT22;6189;52.526;13.390;2023-04-05T13:22:23;11.90;71.40
12254;DHT22;6189;52.526;13.390;2023-04-05T13:25:09;12.00;71.70
12254;DHT22;6189;52.526;13.390;2023-04-05T13:27:55;12.10;71.50
12254;DHT22;6189;52.526;13.390;2023-04-05T13:30:42;12.10;70.90
12254;DHT22;6189;52.526;13.390;2023-04-05T13:33:27;11.90;68.00
12254;DHT22;6189;52.526;13.390;2023-04-05T13:36:13;11.20;70.20
12254;DHT22;6189;52.526;13.390;2023-04-05T13:38:59;11.40;70.70
12254;DHT22;6189;52.526;13.390;2023-04-05T13:41:44;10.70;70.30
12254;DHT22;6189;52.526;13.390;2023-04-05T13:44:30;10.40;70.30
12254;DHT22;6189;52.526;13.390;2023-04-05T13:47:17;10.10;71.90
12254;DHT22;6189;52.526;13.390;2023-04-05T13:50:04;10.30;71.50
12254;DHT22;6189;52.526;13.390;2023-04-05T13:52:49;10.30;71.70
12254;DHT22;6189;52.526;13.390;2023-04-05T13:55:35;10.40;72.40
12254;DHT22;6189;52.526;13.390;2023-04-05T13:58:21;10.70;73.30
12254;DHT22;6189;52.526;13.390;2023-04-05T14:01:06;11.00;71.00
12254;DHT22;6189;52.526;13.390;2023-04-05T14:03:54;11.20;70.60
12254;DHT22;6189;52.526;13.390;2023-04-05T14:06:39;11.30;70.10
12254;DHT22;6189;52.526;13.390;2023-04-05T14:09:25;11.40;69.60
12254;DHT22;6189;52.526;13.390;2023-04-05T14:12:11;11.20;69.30
12254;DHT22;6189;52.526;13.390;2023-04-05T14:14:57;11.30;70.40
12254;DHT22;6189;52.526;13.390;2023-04-05T14:17:43;11.50;69.60
12254;DHT22;6189;52.526;13.390;2023-04-05T14:20:30;11.40;68.50
12254;DHT22;6189;52.526;13.390;2023-04-05T14:23:16;11.40;69.20
12254;DHT22;6189;52.526;13.390;2023-04-05T14:26:01;11.40;67.90
12254;DHT22;6189;52.526;13.390;2023-04-05T14:28:47;11.50;68.40
12254;DHT22;6189;52.526;13.390;2023-04-05T14:31:32;11.50;68.70
12254;DHT22;6189;52.526;13.390;2023-04-05T14:34:18;11.50;67.60
12254;DHT22;6189;52.526;13.390;2023-04-05T14:37:05;11.40;67.20
12254;DHT22;6189;52.526;13.390;2023-04-05T14:39:51;11.40;67.90
12254;DHT22;6189;52.526;13.390;2023-04-05T14:42:37;11.40;68.10
12254;DHT22;6189;52.526;13.390;2023-04-05T14:45:23;11.20;66.60
12254;DHT22;6189;52.526;13.390;2023-04-05T14:48:10;10.80;68.00
12254;DHT22;6189;52.526;13.390;2023-04-05T14:50:56;10.80;67.30
12254;DHT22;6189;52.526;13.390;2023-04-05T14:53:44;10.80;68.60
12254;DHT22;6189;52.526;13.390;2023-04-05T14:56:29;11.00;67.60
12254;DHT22;6189;52.526;13.390;2023-04-05T14:59:15;11.10;68.10
12254;DHT22;6189;52.526;13.390;2023-04-05T15:02:01;11.20;68.80
12254;DHT22;6189;52.526;13.390;2023-04-05T15:04:47;11.30;68.70
12254;DHT22;6189;52.526;13.390;2023-04-05T15:07:32;11.30;67.50
12254;DHT22;6189;52.526;13.390;2023-04-05T15:10:19;11.30;66.70
12254;DHT22;6189;52.526;13.390;2023-04-05T15:13:05;11.20;66.30
12254;DHT22;6189;52.526;13.390;2023-04-05T15:15:51;11.30;66.60
12254;DHT22;6189;52.526;13.390;2023-04-05T15:18:36;11.20;67.00
12254;DHT22;6189;52.526;13.390;2023-04-05T15:21:22;11.30;69.20
12254;DHT22;6189;52.526;13.390;2023-04-05T15:24:08;11.10;67.90
12254;DHT22;6189;52.526;13.390;2023-04-05T15:26:55;10.50;71.40
12254;DHT22;6189;52.526;13.390;2023-04-05T15:29:45;10.40;74.80
12254;DHT22;6189;52.526;13.390;2023-04-05T15:32:31;10.10;77.10
12254;DHT22;6189;52.526;13.390;2023-04-05T15:35:17;10.20;76.00
12254;DHT22;6189;52.526;13.390;2023-04-05T15:38:02;10.40;75.80
12254;DHT22;6189;52.526;13.390;2023-04-05T15:40:48;10.50;74.50
12254;DHT22;6189;52.526;13.390;2023-04-05T15:43:37;10.30;72.80
12254;DHT22;6189;52.526;13.390;2023-04-05T15:46:23;10.30;72.90
12254;DHT22;6189;52.526;13.390;2023-04-05T15:49:09;10.40;73.20
12254;DHT22;6189;52.526;13.390;2023-04-05T15:51:55;10.60;72.90
12254;DHT22;6189;52.526;13.390;2023-04-05T15:54:41;10.80;71.90
12254;DHT22;6189;52.526;13.390;2023-04-05T15:57:27;10.80;70.20
12254;DHT22;6189;52.526;13.390;2023-04-05T16:00:15;10.80;71.00
12254;DHT22;6189;52.526;13.390;2023-04-05T16:03:01;10.80;68.30
12254;DHT22;6189;52.526;13.390;2023-04-05T16:05:46;10.80;68.50
12254;DHT22;6189;52.526;13.390;2023-04-05T16:08:32;10.80;69.00
12254;DHT22;6189;52.526;13.390;2023-04-05T16:11:18;10.70;68.70
12254;DHT22;6189;52.526;13.390;2023-04-05T16:14:04;10.50;68.70
12254;DHT22;6189;52.526;13.390;2023-04-05T16:16:51;10.50;69.60
12254;DHT22;6189;52.526;13.390;2023-04-05T16:19:37;10.60;69.90
12254;DHT22;6189;52.526;13.390;2023-04-05T16:22:22;10.60;70.40
12254;DHT22;6189;52.526;13.390;2023-04-05T16:25:08;10.40;69.80
12254;DHT22;6189;52.526;13.390;2023-04-05T16:27:54;10.50;68.80
12254;DHT22;6189;52.526;13.390;2023-04-05T16:30:40;10.50;69.50
12254;DHT22;6189;52.526;13.390;2023-04-05T16:33:28;10.60;69.80
12254;DHT22;6189;52.526;13.390;2023-04-05T16:36:14;10.60;68.80
12254;DHT22;6189;52.526;13.390;2023-04-05T16:39:00;10.50;68.70
12254;DHT22;6189;52.526;13.390;2023-04-05T16:41:46;10.60;70.00
12254;DHT22;6189;52.526;13.390;2023-04-05T16:44:32;10.50;68.80
12254;DHT22;6189;52.526;13.390;2023-04-05T16:47:17;10.70;69.50
12254;DHT22;6189;52.526;13.390;2023-04-05T16:50:05;10.80;71.90
12254;DHT22;6189;52.526;13.390;2023-04-05T16:52:51;10.70;68.80
12254;DHT22;6189;52.526;13.390;2023-04-05T16:55:37;10.60;67.20
12254;DHT22;6189;52.526;13.390;2023-04-05T16:58:23;10.50;68.00
12254;DHT22;6189;52.526;13.390;2023-04-05T17:01:08;10.60;70.20
12254;DHT22;6189;52.526;13.390;2023-04-05T17:03:54;10.70;70.80
12254;DHT22;6189;52.526;13.390;2023-04-05T17:06:44;10.70;71.50
12254;DHT22;6189;52.526;13.390;2023-04-05T17:09:30;10.70;70.00
12254;DHT22;6189;52.526;13.390;2023-04-05T17:12:16;10.50;67.80
12254;DHT22;6189;52.526;13.390;2023-04-05T17:15:01;10.60;70.30
12254;DHT22;6189;52.526;13.390;2023-04-05T17:17:47;10.60;68.60
12254;DHT22;6189;52.526;13.390;2023-04-05T17:20:33;10.70;69.40
12254;DHT22;6189;52.526;13.390;2023-04-05T17:23:20;10.80;68.50
12254;DHT22;6189;52.526;13.390;2023-04-05T17:26:06;10.80;68.90
12254;DHT22;6189;52.526;13.390;2023-04-05T17:28:51;10.90;69.90
12254;DHT22;6189;52.526;13.390;2023-04-05T17:31:37;10.80;68.40
12254;DHT22;6189;52.526;13.390;2023-04-05T17:34:23;10.70;67.80
12254;DHT22;6189;52.526;13.390;2023-04-05T17:37:08;10.80;67.50
12254;DHT22;6189;52.526;13.390;2023-04-05T17:39:55;10.80;67.40
12254;DHT22;6189;52.526;13.390;2023-04-05T17:42:40;10.70;67.00
12254;DHT22;6189;52.526;13.390;2023-04-05T17:45:26;10.60;67.20
12254;DHT22;6189;52.526;13.390;2023-04-05T17:48:11;10.40;69.60